createdAt,value
2018-04-12T00:00:48.942Z,1.80
2018-04-12T00:05:53.519Z,1.48
2018-04-12T00:10:56.975Z,1.60
2018-04-12T00:16:00.285Z,1.90
2018-04-12T00:21:10.314Z,2.10
2018-04-12T00:26:14.616Z,1.52
2018-04-12T00:31:18.380Z,1.60
2018-04-12T00:36:22.758Z,1.40
2018-04-12T00:41:26.495Z,1.73
2018-04-12T00:46:29.728Z,1.50
2018-04-12T00:51:33.959Z,1.45
2018-04-12T00:56:37.294Z,1.10
2018-04-12T01:01:40.607Z,0.90
2018-04-12T01:06:45.362Z,1.08
2018-04-12T01:11:48.645Z,0.90
2018-04-12T01:16:53.207Z,1.40
2018-04-12T01:21:57.403Z,0.90
2018-04-12T01:27:00.616Z,0.98
2018-04-12T01:33:18.393Z,0.70
2018-04-12T01:38:21.622Z,0.80
2018-04-12T01:43:26.032Z,0.70
2018-04-12T01:48:29.243Z,0.30
2018-04-12T01:53:33.627Z,0.40
2018-04-12T01:58:36.852Z,0.50
2018-04-12T02:03:40.075Z,0.62
2018-04-12T02:08:43.289Z,0.60
2018-04-12T02:35:33.299Z,0.20
2018-04-12T02:40:36.520Z,0.40
2018-04-12T02:45:39.743Z,0.32
2018-04-12T02:50:43.402Z,0.30
2018-04-12T02:55:46.623Z,0.43
2018-04-12T03:00:49.870Z,0.37
2018-04-12T03:05:53.488Z,0.67
2018-04-12T03:10:57.148Z,0.37
2018-04-12T03:16:00.364Z,0.30
2018-04-12T03:21:03.595Z,0.60
2018-04-12T03:26:06.801Z,0.40
2018-04-12T03:31:10.731Z,0.20
2018-04-12T03:36:14.346Z,0.10
2018-04-12T03:41:17.954Z,0.20
2018-04-12T03:46:21.186Z,0.32
2018-04-12T03:51:24.474Z,0.30
2018-04-12T03:56:28.108Z,0.40
2018-04-12T04:01:31.326Z,0.35
2018-04-12T04:06:34.540Z,0.55
2018-04-12T04:11:38.567Z,0.50
2018-04-12T04:16:53.681Z,0.45
2018-04-12T04:21:56.890Z,0.37
2018-04-12T04:27:00.107Z,0.35
2018-04-12T04:32:03.329Z,0.35
2018-04-12T04:37:06.941Z,0.88
2018-04-12T04:42:10.563Z,0.30
2018-04-12T04:47:14.209Z,0.40
2018-04-12T04:52:17.455Z,0.60
2018-04-12T04:57:20.680Z,0.40
2018-04-12T05:02:23.915Z,0.47
2018-04-12T05:07:27.130Z,0.57
2018-04-12T05:12:30.500Z,0.50
2018-04-12T05:17:34.280Z,0.25
2018-04-12T05:22:37.602Z,0.25
2018-04-12T05:27:40.872Z,0.50
2018-04-12T05:32:44.114Z,1.37
2018-04-12T05:37:47.858Z,0.93
2018-04-12T05:42:51.565Z,0.70
2018-04-12T05:47:54.791Z,1.80
2018-04-12T05:52:58.464Z,1.40
2018-04-12T05:58:01.684Z,1.27
2018-04-12T06:03:04.905Z,1.15
2018-04-12T06:08:08.121Z,1.45
2018-04-12T06:13:11.826Z,0.93
2018-04-12T06:18:15.048Z,0.50
2018-04-12T06:23:18.672Z,0.82
2018-04-12T06:28:21.901Z,1.30
2018-04-12T06:33:25.115Z,1.40
2018-04-12T06:38:28.460Z,1.57
2018-04-12T06:43:32.807Z,1.30
2018-04-12T06:48:36.423Z,1.23
2018-04-12T06:53:40.251Z,2.22
2018-04-12T06:58:43.862Z,1.25
2018-04-12T07:03:47.475Z,1.30
2018-04-12T07:08:51.111Z,2.08
2018-04-12T07:13:54.355Z,1.45
2018-04-12T07:18:57.589Z,1.50
2018-04-12T07:24:01.212Z,1.60
2018-04-12T07:29:04.858Z,2.28
2018-04-12T07:34:08.071Z,2.78
2018-04-12T07:39:11.286Z,2.42
2018-04-12T07:44:14.516Z,1.70
2018-04-12T07:49:17.841Z,1.10
2018-04-12T07:54:21.482Z,1.20
2018-04-12T07:59:24.730Z,1.58
2018-04-12T08:04:27.936Z,1.02
2018-04-12T08:09:31.161Z,1.20
2018-04-12T08:14:34.396Z,1.25
2018-04-12T08:19:37.643Z,1.42
2018-04-12T08:24:40.846Z,1.40
2018-04-12T08:29:44.508Z,2.17
2018-04-12T08:34:47.815Z,2.58
2018-04-12T08:39:51.038Z,2.17
2018-04-12T08:44:54.585Z,2.53
2018-04-12T08:49:57.854Z,2.97
2018-04-12T08:55:01.480Z,3.65
2018-04-12T09:00:04.734Z,2.83
2018-04-12T09:05:07.954Z,1.77
2018-04-12T09:10:11.168Z,1.70
2018-04-12T09:15:14.456Z,2.20
2018-04-12T09:20:17.802Z,2.33
2018-04-12T09:25:21.507Z,1.40
2018-04-12T09:30:24.736Z,1.73
2018-04-12T09:35:29.014Z,1.17
2018-04-12T09:40:32.227Z,1.05
2018-04-12T09:45:35.448Z,1.55
2018-04-12T09:50:38.672Z,1.45
2018-04-12T09:55:42.396Z,1.10
2018-04-12T10:00:51.747Z,1.35
2018-04-12T10:06:01.114Z,0.85
2018-04-12T10:11:05.080Z,0.60
2018-04-12T10:16:08.415Z,0.70
2018-04-12T10:21:12.034Z,0.50
2018-04-12T10:26:16.646Z,0.77
2018-04-12T10:31:19.900Z,0.57
2018-04-12T10:36:23.157Z,0.65
2018-04-12T10:41:26.377Z,0.60
2018-04-12T10:46:29.613Z,0.50
2018-04-12T10:51:32.831Z,0.40
2018-04-12T10:56:36.209Z,0.62
2018-04-12T11:01:39.475Z,0.40
2018-04-12T11:06:42.814Z,0.10
2018-04-12T11:11:46.034Z,0.10
2018-04-12T11:16:49.737Z,0.10
2018-04-12T11:21:52.979Z,0.10
2018-04-12T11:26:56.599Z,0.10
2018-04-12T11:31:59.840Z,0.25
2018-04-12T11:37:03.077Z,0.20
2018-04-12T11:42:07.422Z,0.20
2018-04-12T11:47:10.679Z,0.13
2018-04-12T11:52:14.027Z,0.10
2018-04-12T11:57:18.264Z,0.10
2018-04-12T12:02:21.892Z,0.20
2018-04-12T12:07:25.122Z,0.10
2018-04-12T12:12:28.497Z,0.20
2018-04-12T12:17:31.662Z,0.13
2018-04-12T12:22:34.980Z,0.40
2018-04-12T12:27:38.296Z,0.20
2018-04-12T12:32:41.910Z,0.20
2018-04-12T12:37:45.126Z,0.10
2018-04-12T12:42:48.746Z,0.10
2018-04-12T12:47:52.362Z,0.17
2018-04-12T12:52:55.966Z,0.20
2018-04-12T12:57:59.577Z,0.10
2018-04-12T13:03:02.795Z,0.30
2018-04-12T13:08:06.497Z,0.20
2018-04-12T13:13:09.716Z,0.30
2018-04-12T13:18:13.332Z,0.10
2018-04-12T13:23:16.954Z,0.20
2018-04-12T13:28:20.649Z,0.35
2018-04-12T13:33:23.880Z,0.10
2018-04-12T13:38:27.178Z,0.10
2018-04-12T13:43:30.790Z,0.32
2018-04-12T13:48:34.416Z,0.20
2018-04-12T13:53:37.639Z,0.47
2018-04-12T13:58:40.854Z,0.15
2018-04-12T14:03:44.058Z,0.30
2018-04-12T14:08:47.276Z,0.30
2018-04-12T14:13:50.490Z,0.40
2018-04-12T14:18:53.705Z,0.40
2018-04-12T14:23:56.921Z,0.30
2018-04-12T14:29:01.082Z,0.30
2018-04-12T14:34:04.289Z,0.40
2018-04-12T14:39:07.532Z,0.30
2018-04-12T14:44:11.384Z,0.43
2018-04-12T14:49:14.603Z,0.20
2018-04-12T14:54:19.227Z,0.30
2018-04-12T14:59:21.463Z,0.60
2018-04-12T15:04:24.677Z,0.57
2018-04-12T15:09:27.894Z,0.37
2018-04-12T15:14:31.103Z,0.40
2018-04-12T15:19:34.435Z,0.35
2018-04-12T15:24:37.648Z,0.32
2018-04-12T15:29:41.271Z,0.30
2018-04-12T15:34:44.925Z,0.50
2018-04-12T15:39:48.153Z,0.30
2018-04-12T15:44:51.384Z,0.37
2018-04-12T15:49:54.599Z,0.45
2018-04-12T15:54:58.852Z,0.30
2018-04-12T16:00:02.123Z,0.43
2018-04-12T16:05:05.356Z,0.30
2018-04-12T16:10:08.580Z,2.70
2018-04-12T16:15:11.851Z,0.30
2018-04-12T16:20:15.558Z,0.28
2018-04-12T16:25:18.775Z,0.30
2018-04-12T16:30:22.382Z,0.20
2018-04-12T16:35:26.378Z,0.43
2018-04-12T16:40:29.898Z,0.35
2018-04-12T16:45:33.258Z,0.20
2018-04-12T16:50:36.507Z,0.30
2018-04-12T16:55:39.751Z,0.45
2018-04-12T17:00:43.370Z,0.35
2018-04-12T17:05:47.198Z,0.32
2018-04-12T17:10:50.406Z,0.20
2018-04-12T17:15:53.698Z,0.47
2018-04-12T17:20:57.308Z,0.28
2018-04-12T17:26:00.530Z,0.50
2018-04-12T17:31:03.813Z,0.55
2018-04-12T17:36:08.244Z,0.37
2018-04-12T17:41:11.487Z,0.70
2018-04-12T17:46:15.805Z,0.43
2018-04-12T17:51:19.036Z,0.43
2018-04-12T17:56:22.394Z,0.60
2018-04-12T18:01:25.603Z,0.60
2018-04-12T18:06:28.827Z,0.50
2018-04-12T18:11:32.494Z,0.20
2018-04-12T18:16:35.730Z,0.30
2018-04-12T18:21:40.150Z,0.40
2018-04-12T18:26:43.577Z,0.43
2018-04-12T18:31:47.159Z,0.30
2018-04-12T18:36:50.502Z,0.40
2018-04-12T18:41:53.901Z,0.40
2018-04-12T18:52:31.860Z,0.30
2018-04-12T18:57:36.292Z,1.33
2018-04-12T19:02:39.898Z,0.60
2018-04-12T19:07:44.064Z,1.05
2018-04-12T19:12:48.811Z,0.88
2018-04-12T19:17:52.805Z,0.62
2018-04-12T19:22:56.728Z,0.73
2018-04-12T19:28:00.397Z,0.82
2018-04-12T19:33:03.690Z,0.62
2018-04-12T19:38:06.958Z,0.70
2018-04-12T19:43:10.891Z,0.80
2018-04-12T19:48:14.351Z,0.60
2018-04-12T19:53:18.106Z,0.50
2018-04-12T19:58:22.071Z,0.73
2018-04-12T20:03:25.682Z,0.80
2018-04-12T20:08:29.047Z,0.60
2018-04-12T20:13:32.885Z,0.57
2018-04-12T20:18:36.031Z,0.70
2018-04-12T20:23:39.454Z,0.70
2018-04-12T20:28:42.927Z,0.73
2018-04-12T20:33:46.492Z,0.70
2018-04-12T20:38:49.817Z,0.43
2018-04-12T20:43:53.257Z,0.60
2018-04-12T20:48:56.515Z,1.10
2018-04-12T20:53:59.759Z,0.60
2018-04-12T20:59:03.048Z,0.70
2018-04-12T21:04:06.827Z,0.60
2018-04-12T21:09:10.051Z,0.62
2018-04-12T21:14:13.284Z,0.70
2018-04-12T21:19:16.680Z,0.80
2018-04-12T21:24:20.699Z,0.90
2018-04-12T21:29:24.624Z,0.60
2018-04-12T21:34:28.504Z,0.50
2018-04-12T21:39:32.026Z,0.47
2018-04-12T21:44:39.577Z,0.60
2018-04-12T21:49:43.731Z,0.70
2018-04-12T21:54:47.077Z,0.33
2018-04-12T21:59:51.754Z,0.60
2018-04-12T22:04:55.143Z,0.60
2018-04-12T22:09:58.779Z,0.67
2018-04-12T22:15:02.043Z,0.37
2018-04-12T22:20:05.328Z,0.40
2018-04-12T22:25:08.688Z,0.60
2018-04-12T22:30:11.920Z,0.60
2018-04-12T22:35:15.174Z,0.60
2018-04-12T22:40:19.109Z,0.70
2018-04-12T22:45:22.339Z,0.93
2018-04-12T22:50:25.648Z,0.67
2018-04-12T22:55:28.900Z,0.47
2018-04-12T23:00:33.052Z,0.60
2018-04-12T23:11:10.809Z,0.50
2018-04-12T23:16:14.568Z,0.60
2018-04-12T23:21:18.144Z,0.60
2018-04-12T23:26:21.850Z,0.80
2018-04-12T23:31:25.080Z,0.50
2018-04-12T23:36:28.303Z,0.40
2018-04-12T23:41:31.541Z,0.67
2018-04-12T23:46:34.903Z,1.67
2018-04-12T23:51:46.432Z,0.90
2018-04-12T23:56:49.755Z,0.60
